Thorne, Nevada
Current Conditions -  °F | °C
As of 1:52 PM on Saturday 20 Dec 2014 (Local Time) from KBAN Reporting Station
Overcast Overcast  
Wind Chill: 38°   Ceiling: 10000
Heat Index: 45°   Visibility: NA
Dew Point: 31°   Wind: 17mph
Humidity: 58%   Direction: 230°SW
Pressure: 30.1"   Gusts: 24mph
Location:  38.6331°N, 118.656°W
Report Text: KBAN 202152Z AUTO 23015G21KT SCT039 SCT047 OVC100 07/M01 A3010 RMK AO2 SLP168 T00721006 $
Loading
Personal Weather Stations






























Interactive Weather Map New forecast layout! Learn more

10-Day Weather Forecast

Advertisements
Track Severe Weather on mobile